»·PEaware :: JZA559 KOTH-KSFO

JZA559 :: KOTH-KSFO

FLIGHT INFORMATION

Flight Status: Arrived
Operator:
Air Canada Jazz
More flights by this operator :: More flights under this callsign
Pilot: Mike G. (11411)
Aircraft: CANADAIR CL-600 CRJ-900
(CRJ9)
More flights by this aircraft type
Origin: KOTH North Bend Mun
United States
Destination: KSFO San Francisco Intl
United States
More flights between these airports :: More routes between these airports
Route: +OTH6 LEDGE CEC KO60C AMAKR BDEGA3
File this flight plan on PilotEdge
Remarks: RMK / SIMBRIEF
Altitude:
(Current/Filed)
31,000ft
Speed:
(Current/Filed)
415kts
Departed: 21-May-19 11:22 AM
Arrived: 21-May-19 12:24 PM
Distance/Time
Traveled:
358nm/1:01
Distance/Time
To Go:
Arrived

Flight Plot

Page will automatically refresh every two minutes.

Flight plan parsing failed; only flown route is shown


Map Options




Map Legend


Flown Route
Filed Route
Departure Airport
Arrival Airport
Navaid (VOR, NDB)
Fix

Horizontal Profiles

Position Reports

Time Latitude Longitude Heading Altitude Ground
Speed
21-May-19 10:42 43.414233 -124.245556 239 24ft 0kts
21-May-19 10:43 43.414233 -124.245556 239 24ft 0kts
21-May-19 10:44 43.414233 -124.245556 239 24ft 0kts
21-May-19 10:45 43.414233 -124.245556 239 24ft 0kts
21-May-19 10:46 43.414233 -124.245556 239 24ft 0kts
21-May-19 10:47 43.414233 -124.245556 239 24ft 0kts
21-May-19 10:48 43.414233 -124.245556 239 24ft 0kts
21-May-19 10:49 43.414233 -124.245556 239 24ft 0kts
21-May-19 10:50 43.414233 -124.245556 239 24ft 0kts
21-May-19 10:51 43.414233 -124.245556 239 24ft 0kts
21-May-19 10:52 43.414233 -124.245556 239 24ft 0kts
21-May-19 10:53 43.414233 -124.245556 239 24ft 0kts
21-May-19 10:54 43.414233 -124.245556 239 24ft 0kts
21-May-19 10:55 43.414233 -124.245556 239 24ft 0kts
21-May-19 10:56 43.414233 -124.245556 239 24ft 0kts
21-May-19 10:57 43.414233 -124.245556 239 24ft 0kts
21-May-19 10:58 43.414233 -124.245556 239 24ft 0kts
21-May-19 10:59 43.414233 -124.245556 239 24ft 0kts
21-May-19 11:00 43.414233 -124.245556 239 24ft 0kts
21-May-19 11:01 43.414233 -124.245556 239 24ft 0kts
21-May-19 11:02 43.414233 -124.245556 239 24ft 0kts
21-May-19 11:03 43.414233 -124.245556 239 24ft 0kts
21-May-19 11:04 43.414233 -124.245556 239 24ft 0kts
21-May-19 11:05 43.414233 -124.245556 239 24ft 0kts
21-May-19 11:06 43.414233 -124.245557 239 24ft 0kts
21-May-19 11:07 43.414468 -124.245013 239 24ft 0kts
21-May-19 11:08 43.414460 -124.245032 240 24ft 1kts
21-May-19 11:09 43.415603 -124.245227 58 24ft 0kts
21-May-19 11:10 43.415604 -124.245225 58 24ft 0kts
21-May-19 11:11 43.417333 -124.245935 328 24ft 18kts
21-May-19 11:12 43.419347 -124.246485 63 24ft 0kts
21-May-19 11:13 43.420284 -124.242188 74 24ft 22kts
21-May-19 11:14 43.422318 -124.240391 4 24ft 16kts
21-May-19 11:15 43.422673 -124.241041 241 24ft 0kts
21-May-19 11:16 43.422673 -124.241041 241 24ft 0kts
21-May-19 11:17 43.422673 -124.241041 241 24ft 0kts
21-May-19 11:18 43.422673 -124.241041 241 24ft 0kts
21-May-19 11:19 43.422663 -124.241064 241 24ft 1kts
21-May-19 11:20 43.421829 -124.243272 242 24ft 2kts
21-May-19 11:21 43.419854 -124.248084 240 24ft 85kts
21-May-19 11:22 43.409505 -124.302478 298 2068ft 189kts
21-May-19 11:23 43.449630 -124.282814 91 4364ft 228kts
21-May-19 11:24 43.417376 -124.212243 139 7048ft 234kts
21-May-19 11:25 43.351334 -124.173381 166 8898ft 277kts
21-May-19 11:26 43.272794 -124.174745 185 11534ft 290kts
21-May-19 11:27 43.190003 -124.178788 183 13782ft 311kts
21-May-19 11:28 43.096775 -124.182897 183 15123ft 362kts
21-May-19 11:29 42.988482 -124.187830 183 16359ft 415kts
21-May-19 11:30 42.870994 -124.192987 183 19016ft 422kts
21-May-19 11:31 42.752416 -124.198400 185 21187ft 433kts
21-May-19 11:32 42.629778 -124.203914 185 22928ft 450kts
21-May-19 11:33 42.502166 -124.209777 186 24484ft 467kts
21-May-19 11:34 42.370428 -124.215544 187 25934ft 482kts
21-May-19 11:35 42.236156 -124.221593 189 27727ft 484kts
21-May-19 11:36 42.101292 -124.227484 190 29371ft 485kts
21-May-19 11:37 41.965176 -124.233648 190 30657ft 491kts
21-May-19 11:38 41.825892 -124.239665 190 30870ft 508kts
21-May-19 11:39 41.681880 -124.230000 179 30874ft 530kts
21-May-19 11:40 41.537737 -124.207562 183 30874ft 513kts
21-May-19 11:41 41.395770 -124.188922 182 30886ft 514kts
21-May-19 11:42 41.253413 -124.169145 184 30903ft 516kts
21-May-19 11:43 41.109825 -124.149931 184 30917ft 519kts
21-May-19 11:44 40.965560 -124.130186 185 30923ft 523kts
21-May-19 11:45 40.820618 -124.110894 186 30924ft 525kts
21-May-19 11:46 40.674446 -124.091427 186 30936ft 528kts
21-May-19 11:47 40.527897 -124.071595 187 30942ft 530kts
21-May-19 11:48 40.381009 -124.052277 187 30942ft 533kts
21-May-19 11:49 40.233058 -124.032279 188 30940ft 534kts
21-May-19 11:50 40.085038 -124.012815 188 30939ft 536kts
21-May-19 11:51 39.936131 -123.988389 182 30942ft 546kts
21-May-19 11:52 39.786905 -123.957725 185 30946ft 540kts
21-May-19 11:53 39.637089 -123.917487 179 30952ft 553kts
21-May-19 11:54 39.488530 -123.879249 181 30959ft 539kts
21-May-19 11:55 39.342157 -123.840320 180 30966ft 533kts
21-May-19 11:56 39.197697 -123.802941 181 30971ft 526kts
21-May-19 11:57 39.055024 -123.765638 179 30979ft 523kts
21-May-19 11:58 38.924807 -123.671888 134 30982ft 568kts
21-May-19 11:59 38.822953 -123.516707 143 30983ft 569kts
21-May-19 12:00 38.706117 -123.377904 136 30983ft 577kts
21-May-19 12:01 38.597759 -123.236852 140 28733ft 533kts
21-May-19 12:02 38.493826 -123.106831 138 25949ft 513kts
21-May-19 12:03 38.393696 -122.979883 141 23602ft 506kts
21-May-19 12:04 38.293203 -122.853793 136 20621ft 502kts
21-May-19 12:05 38.191312 -122.754010 168 18983ft 419kts
21-May-19 12:06 38.078020 -122.728396 178 17860ft 426kts
21-May-19 12:07 37.964145 -122.691896 175 16570ft 394kts
21-May-19 12:08 37.866488 -122.647659 144 15303ft 368kts
21-May-19 12:09 37.795142 -122.557752 145 12450ft 341kts
21-May-19 12:10 37.725710 -122.489632 139 10981ft 294kts
21-May-19 12:11 37.660430 -122.420053 142 10988ft 309kts
21-May-19 12:12 37.597290 -122.355081 148 10982ft 277kts
21-May-19 12:13 37.533226 -122.303408 150 9307ft 266kts
21-May-19 12:14 37.477836 -122.248476 123 7071ft 251kts
21-May-19 12:15 37.444765 -122.174196 110 4784ft 227kts
21-May-19 12:16 37.472842 -122.139783 324 3812ft 165kts
21-May-19 12:17 37.519526 -122.166462 333 3109ft 185kts
21-May-19 12:18 37.550212 -122.212147 296 2460ft 178kts
21-May-19 12:19 37.571095 -122.261344 295 1782ft 130kts
21-May-19 12:20 37.586124 -122.297273 295 1055ft 107kts
21-May-19 12:21 37.600411 -122.331428 298 658ft 107kts
21-May-19 12:22 37.614380 -122.364675 295 27ft 98kts
21-May-19 12:23 37.622423 -122.384070 295 20ft 38kts
21-May-19 12:24 37.624614 -122.390804 206 20ft 1kts
21-May-19 12:26 37.624596 -122.390815 206 20ft 0kts
21-May-19 12:27 37.624541 -122.390849 206 20ft 0kts
21-May-19 12:28 37.624539 -122.390850 206 20ft 0kts
21-May-19 12:29 37.624538 -122.390851 206 20ft 0kts
21-May-19 12:30 37.624536 -122.390852 206 20ft 0kts
21-May-19 12:31 37.624536 -122.390852 206 20ft 0kts

Navigation Log

Ident Type
Flight plan parsing failed, navigation log unavailable